ADDS TAF Data INFO
IDs: Format: Raw Decoded Include METARs

Data at: 2109 UTC 21 Nov 2017

KLUF 212056Z AUTO 00000KT M R21/P6000FT M CLR 24/M05 A3005 RMK AO2 SLP169 T02441048 57023 $

TAF KLUF 212001Z 2120/2302 VRB06KT 9999 SCT250 QNH3001INS
  BECMG 2217/2218 09012KT 9999 FEW250 QNH3009INS
  BECMG 2300/2301 08004KT 9999 FEW250 QNH3011INS TX25/2121Z TN11/2212Z